createdAt,value
2017-11-26T00:02:09.371Z,96.70
2017-11-26T00:04:36.796Z,97.50
2017-11-26T00:07:03.540Z,97.50
2017-11-26T00:09:30.987Z,98.00
2017-11-26T00:11:57.691Z,98.00
2017-11-26T00:14:24.399Z,98.20
2017-11-26T00:16:51.129Z,98.50
2017-11-26T00:19:17.888Z,98.20
2017-11-26T00:21:45.328Z,99.50
2017-11-26T00:24:12.066Z,99.50
2017-11-26T00:26:38.756Z,98.00
2017-11-26T00:29:06.232Z,97.00
2017-11-26T00:31:33.002Z,96.90
2017-11-26T00:33:59.724Z,96.90
2017-11-26T00:36:26.416Z,97.30
2017-11-26T00:38:53.132Z,98.00
2017-11-26T00:41:19.787Z,97.90
2017-11-26T00:43:46.530Z,97.80
2017-11-26T00:46:13.297Z,97.60
2017-11-26T00:48:40.005Z,98.30
2017-11-26T00:51:06.713Z,98.60
2017-11-26T00:53:34.140Z,98.60
2017-11-26T00:56:00.791Z,98.60
2017-11-26T00:58:27.479Z,98.40
2017-11-26T01:00:54.207Z,98.40
2017-11-26T01:03:21.640Z,98.30
2017-11-26T01:05:48.348Z,98.30
2017-11-26T01:08:15.054Z,98.40
2017-11-26T01:10:42.484Z,98.80
2017-11-26T01:13:09.900Z,98.80
2017-11-26T01:15:36.606Z,99.20
2017-11-26T01:18:04.028Z,98.30
2017-11-26T01:20:30.754Z,98.20
2017-11-26T01:22:57.463Z,98.50
2017-11-26T01:25:24.139Z,98.70
2017-11-26T01:27:50.819Z,98.70
2017-11-26T01:30:17.483Z,98.80
2017-11-26T01:32:44.948Z,97.80
2017-11-26T01:35:12.387Z,97.50
2017-11-26T01:37:39.122Z,97.50
2017-11-26T01:40:05.883Z,97.90
2017-11-26T01:42:32.552Z,98.00
2017-11-26T01:45:00.031Z,97.70
2017-11-26T01:47:26.770Z,97.70
2017-11-26T01:49:53.451Z,97.70
2017-11-26T01:52:20.104Z,97.90
2017-11-26T01:54:46.857Z,97.70
2017-11-26T01:57:13.604Z,97.00
2017-11-26T01:59:40.332Z,97.10
2017-11-26T02:02:07.076Z,97.10
2017-11-26T02:04:33.799Z,97.20
2017-11-26T02:07:00.533Z,97.80
2017-11-26T02:09:27.317Z,97.50
2017-11-26T02:11:54.004Z,97.70
2017-11-26T02:14:20.766Z,97.80
2017-11-26T02:16:47.508Z,97.80
2017-11-26T02:19:14.274Z,97.90
2017-11-26T02:21:41.356Z,98.30
2017-11-26T02:24:08.146Z,98.10
2017-11-26T02:26:34.917Z,98.00
2017-11-26T02:29:01.685Z,98.10
2017-11-26T02:31:46.661Z,98.00
2017-11-26T02:34:31.547Z,98.10
2017-11-26T02:36:59.145Z,98.60
2017-11-26T02:39:25.878Z,98.60
2017-11-26T02:41:52.649Z,99.00
2017-11-26T02:44:19.379Z,99.30
2017-11-26T02:46:46.118Z,99.60
2017-11-26T02:49:12.905Z,99.20
2017-11-26T02:51:39.637Z,99.10
2017-11-26T02:54:06.399Z,99.10
2017-11-26T02:56:33.169Z,99.10
2017-11-26T02:59:00.672Z,99.50
2017-11-26T03:01:27.390Z,99.50
2017-11-26T03:03:54.088Z,99.60
2017-11-26T03:06:20.788Z,99.70
2017-11-26T03:08:47.520Z,99.50
2017-11-26T03:11:14.254Z,99.50
2017-11-26T03:13:41.765Z,98.90
2017-11-26T03:16:08.554Z,98.90
2017-11-26T03:18:36.016Z,99.50
2017-11-26T03:21:03.450Z,99.50
2017-11-26T03:23:30.137Z,99.50
2017-11-26T03:25:56.881Z,99.50
2017-11-26T03:28:23.626Z,99.60
2017-11-26T03:30:50.357Z,99.50
2017-11-26T03:33:17.857Z,99.30
2017-11-26T03:35:44.592Z,99.30
2017-11-26T03:38:11.255Z,99.40
2017-11-26T03:40:38.006Z,99.50
2017-11-26T03:43:04.717Z,99.50
2017-11-26T03:45:31.450Z,99.60
2017-11-26T03:47:58.191Z,99.60
2017-11-26T03:50:24.912Z,99.30
2017-11-26T03:52:51.596Z,99.60
2017-11-26T03:55:18.344Z,99.60
2017-11-26T03:57:45.091Z,99.30
2017-11-26T04:00:11.852Z,99.80
2017-11-26T04:02:38.509Z,99.90
2017-11-26T04:05:05.235Z,99.90
2017-11-26T04:07:31.924Z,99.90
2017-11-26T04:09:59.393Z,99.90
2017-11-26T04:12:26.924Z,99.90
2017-11-26T04:14:53.614Z,99.90
2017-11-26T04:17:20.361Z,99.90
2017-11-26T04:19:47.051Z,99.90
2017-11-26T04:22:13.733Z,99.90
2017-11-26T04:24:40.438Z,99.90
2017-11-26T04:27:07.177Z,99.90
2017-11-26T04:29:33.830Z,99.90
2017-11-26T04:32:00.518Z,99.90
2017-11-26T04:34:27.225Z,99.90
2017-11-26T04:36:53.945Z,99.90
2017-11-26T04:39:20.661Z,99.90
2017-11-26T04:41:47.386Z,99.90
2017-11-26T04:44:14.940Z,99.90
2017-11-26T04:46:42.446Z,99.90
2017-11-26T04:49:09.173Z,99.90
2017-11-26T04:51:35.875Z,99.90
2017-11-26T04:54:02.576Z,99.90
2017-11-26T04:56:29.286Z,99.90
2017-11-26T04:58:56.775Z,99.90
2017-11-26T05:01:23.548Z,99.90
2017-11-26T05:03:50.300Z,99.90
2017-11-26T05:06:17.036Z,99.90
2017-11-26T05:08:43.723Z,99.90
2017-11-26T05:11:11.167Z,99.90
2017-11-26T05:13:37.869Z,99.90
2017-11-26T05:16:04.572Z,99.90
2017-11-26T05:18:31.283Z,99.90
2017-11-26T05:20:57.959Z,99.90
2017-11-26T05:23:26.290Z,99.90
2017-11-26T05:25:52.995Z,99.90
2017-11-26T05:28:19.718Z,99.90
2017-11-26T05:30:47.149Z,99.90
2017-11-26T05:33:13.878Z,99.90
2017-11-26T05:35:40.625Z,99.90
2017-11-26T05:38:07.381Z,99.90
2017-11-26T05:40:34.179Z,99.90
2017-11-26T05:43:00.884Z,99.90
2017-11-26T05:45:27.660Z,99.90
2017-11-26T05:47:54.392Z,99.90
2017-11-26T05:50:21.899Z,99.90
2017-11-26T05:52:48.604Z,99.90
2017-11-26T05:55:16.056Z,99.90
2017-11-26T05:57:44.365Z,99.90
2017-11-26T06:00:11.161Z,99.90
2017-11-26T06:02:38.673Z,99.90
2017-11-26T06:05:05.365Z,99.90
2017-11-26T06:07:32.078Z,99.90
2017-11-26T06:09:58.761Z,99.90
2017-11-26T06:12:25.468Z,99.90
2017-11-26T06:14:52.162Z,99.90
2017-11-26T06:19:47.212Z,99.90
2017-11-26T06:22:13.935Z,99.90
2017-11-26T06:24:41.445Z,99.90
2017-11-26T06:27:08.215Z,99.90
2017-11-26T06:29:34.951Z,99.90
2017-11-26T06:32:01.633Z,99.90
2017-11-26T06:34:28.370Z,99.90
2017-11-26T06:36:55.803Z,99.90
2017-11-26T06:39:22.532Z,99.90
2017-11-26T06:41:49.225Z,99.90
2017-11-26T06:44:15.969Z,99.90
2017-11-26T06:46:42.742Z,99.90
2017-11-26T06:49:09.455Z,99.90
2017-11-26T06:51:36.954Z,99.90
2017-11-26T06:54:03.652Z,99.90
2017-11-26T06:56:31.812Z,99.90
2017-11-26T06:58:58.547Z,99.90
2017-11-26T07:01:25.237Z,99.90
2017-11-26T07:03:51.961Z,99.90
2017-11-26T07:06:18.702Z,99.90
2017-11-26T07:08:46.113Z,99.90
2017-11-26T07:11:13.101Z,99.90
2017-11-26T07:13:39.885Z,99.90
2017-11-26T07:16:06.589Z,99.90
2017-11-26T07:18:33.280Z,99.90
2017-11-26T07:21:00.003Z,99.90
2017-11-26T07:23:26.754Z,99.90
2017-11-26T07:25:53.724Z,99.90
2017-11-26T07:28:20.415Z,99.90
2017-11-26T07:30:47.938Z,99.90
2017-11-26T07:33:14.669Z,99.90
2017-11-26T07:35:41.397Z,99.90
2017-11-26T07:38:08.080Z,99.90
2017-11-26T07:40:34.830Z,99.90
2017-11-26T07:43:01.507Z,99.90
2017-11-26T07:45:28.951Z,99.90
2017-11-26T07:47:55.643Z,99.90
2017-11-26T07:50:22.337Z,99.90
2017-11-26T07:52:49.065Z,99.90
2017-11-26T07:55:15.823Z,99.90
2017-11-26T07:57:42.556Z,99.90
2017-11-26T08:00:09.300Z,99.90
2017-11-26T08:02:36.073Z,99.90
2017-11-26T08:05:03.519Z,99.90
2017-11-26T08:07:30.268Z,99.90
2017-11-26T08:09:56.978Z,99.90
2017-11-26T08:12:23.649Z,99.80
2017-11-26T08:14:50.327Z,98.90
2017-11-26T08:17:17.027Z,98.80
2017-11-26T08:19:43.736Z,98.70
2017-11-26T08:22:10.436Z,99.30
2017-11-26T08:24:37.897Z,98.90
2017-11-26T08:27:05.314Z,98.80
2017-11-26T08:29:32.019Z,98.80
2017-11-26T08:31:58.744Z,99.00
2017-11-26T08:34:26.160Z,99.00
2017-11-26T08:36:52.906Z,99.00
2017-11-26T08:39:19.687Z,98.60
2017-11-26T08:41:47.229Z,99.00
2017-11-26T08:44:14.333Z,98.90
2017-11-26T08:46:41.068Z,98.70
2017-11-26T08:49:09.344Z,97.60
2017-11-26T08:51:36.854Z,97.50
2017-11-26T08:54:03.984Z,97.50
2017-11-26T08:56:30.726Z,97.60
2017-11-26T08:58:57.484Z,97.60
2017-11-26T09:01:24.240Z,97.60
2017-11-26T09:03:50.948Z,97.90
2017-11-26T09:06:21.645Z,98.20
2017-11-26T09:08:50.221Z,98.10
2017-11-26T09:11:17.684Z,98.00
2017-11-26T09:13:44.428Z,98.30
2017-11-26T09:16:11.184Z,97.80
2017-11-26T09:18:37.904Z,97.60
2017-11-26T09:21:04.664Z,97.80
2017-11-26T09:23:31.359Z,98.10
2017-11-26T09:25:58.299Z,98.30
2017-11-26T09:28:25.049Z,97.40
2017-11-26T09:30:51.827Z,97.00
2017-11-26T09:33:18.531Z,95.70
2017-11-26T09:35:46.046Z,95.60
2017-11-26T09:38:12.774Z,95.60
2017-11-26T09:40:40.248Z,93.70
2017-11-26T09:43:06.951Z,93.70
2017-11-26T09:45:33.664Z,92.90
2017-11-26T09:48:01.107Z,91.10
2017-11-26T09:50:27.825Z,91.00
2017-11-26T09:52:54.585Z,88.90
2017-11-26T09:55:21.263Z,88.10
2017-11-26T09:57:48.699Z,81.40
2017-11-26T10:00:15.633Z,81.30
2017-11-26T10:02:42.326Z,76.20
2017-11-26T10:05:09.725Z,75.50
2017-11-26T10:07:36.425Z,75.40
2017-11-26T10:10:03.147Z,75.60
2017-11-26T10:12:29.834Z,72.00
2017-11-26T10:14:56.530Z,71.80
2017-11-26T10:17:23.237Z,66.80
2017-11-26T10:19:49.934Z,66.30
2017-11-26T10:22:17.403Z,63.90
2017-11-26T10:24:45.093Z,63.80
2017-11-26T10:27:11.809Z,63.70
2017-11-26T10:29:39.392Z,63.10
2017-11-26T10:32:06.124Z,63.20
2017-11-26T10:34:33.610Z,59.40
2017-11-26T10:37:00.284Z,59.40
2017-11-26T10:39:26.991Z,59.20
2017-11-26T10:41:53.803Z,58.80
2017-11-26T10:44:20.565Z,57.90
2017-11-26T10:46:47.456Z,58.00
2017-11-26T10:49:14.180Z,57.00
2017-11-26T10:51:40.879Z,57.00
2017-11-26T10:54:07.685Z,56.20
2017-11-26T10:56:34.459Z,56.00
2017-11-26T10:59:01.352Z,53.90
2017-11-26T11:01:28.132Z,53.60
2017-11-26T11:03:54.840Z,54.20
2017-11-26T11:06:21.612Z,52.50
2017-11-26T11:08:48.340Z,52.60
2017-11-26T11:11:15.146Z,53.40
2017-11-26T11:13:42.614Z,54.40
2017-11-26T11:16:10.113Z,52.20
2017-11-26T11:18:36.883Z,52.30
2017-11-26T11:21:03.676Z,52.50
2017-11-26T11:23:31.157Z,52.50
2017-11-26T11:25:57.920Z,52.50
2017-11-26T11:28:24.672Z,51.20
2017-11-26T11:30:51.458Z,51.60
2017-11-26T11:33:18.966Z,50.00
2017-11-26T11:35:45.651Z,50.00
2017-11-26T11:38:13.119Z,51.00
2017-11-26T11:40:39.813Z,50.90
2017-11-26T11:43:06.488Z,49.90
2017-11-26T11:45:33.215Z,49.40
2017-11-26T11:47:59.907Z,50.20
2017-11-26T11:50:26.611Z,48.40
2017-11-26T11:52:53.395Z,48.40
2017-11-26T11:55:20.962Z,47.80
2017-11-26T11:57:47.783Z,47.70
2017-11-26T12:00:14.647Z,48.70
2017-11-26T12:02:42.248Z,49.70
2017-11-26T12:05:09.452Z,49.70
2017-11-26T12:07:36.286Z,48.70
2017-11-26T12:10:03.072Z,48.00
2017-11-26T12:12:30.600Z,46.40
2017-11-26T12:14:57.351Z,46.30
2017-11-26T12:17:24.143Z,44.70
2017-11-26T12:19:50.925Z,46.20
2017-11-26T12:22:17.739Z,42.60
2017-11-26T12:24:44.489Z,41.00
2017-11-26T12:27:11.300Z,40.80
2017-11-26T12:29:38.879Z,39.90
2017-11-26T12:32:05.737Z,39.80
2017-11-26T12:34:32.537Z,40.10
2017-11-26T12:36:59.380Z,41.60
2017-11-26T12:39:26.164Z,41.60
2017-11-26T12:41:52.952Z,40.60
2017-11-26T12:44:19.724Z,41.90
2017-11-26T12:46:47.285Z,43.40
2017-11-26T12:49:14.017Z,43.40
2017-11-26T12:51:40.793Z,43.40
2017-11-26T12:54:08.296Z,44.50
2017-11-26T12:56:35.081Z,44.40
2017-11-26T12:59:02.580Z,44.70
2017-11-26T13:01:29.385Z,44.70
2017-11-26T13:03:56.157Z,44.10
2017-11-26T13:06:22.936Z,44.50
2017-11-26T13:08:49.787Z,45.40
2017-11-26T13:11:16.589Z,45.70
2017-11-26T13:13:43.409Z,46.20
2017-11-26T13:16:10.239Z,46.50
2017-11-26T13:18:37.000Z,47.40
2017-11-26T13:21:03.807Z,45.90
2017-11-26T13:23:30.624Z,46.20
2017-11-26T13:25:57.410Z,45.30
2017-11-26T13:28:24.627Z,45.00
2017-11-26T13:30:51.480Z,44.80
2017-11-26T13:33:18.888Z,47.20
2017-11-26T13:35:45.726Z,45.70
2017-11-26T13:38:12.610Z,46.00
2017-11-26T13:40:40.155Z,45.00
2017-11-26T13:43:07.751Z,44.50
2017-11-26T13:45:34.566Z,44.20
2017-11-26T13:48:01.351Z,44.90
2017-11-26T13:50:28.206Z,44.60
2017-11-26T13:52:55.041Z,44.40
2017-11-26T13:55:21.788Z,44.80
2017-11-26T13:57:48.550Z,44.10
2017-11-26T14:00:15.379Z,43.60
2017-11-26T14:02:42.284Z,43.90
2017-11-26T14:05:09.163Z,45.00
2017-11-26T14:07:36.711Z,43.80
2017-11-26T14:10:04.342Z,43.10
2017-11-26T14:12:31.194Z,43.20
2017-11-26T14:14:58.052Z,43.10
2017-11-26T14:17:24.870Z,43.50
2017-11-26T14:19:51.638Z,42.50
2017-11-26T14:22:18.468Z,42.10
2017-11-26T14:24:45.275Z,41.80
2017-11-26T14:27:12.056Z,42.60
2017-11-26T14:29:38.909Z,41.60
2017-11-26T14:32:05.721Z,42.70
2017-11-26T14:34:32.509Z,43.00
2017-11-26T14:36:59.369Z,42.40
2017-11-26T14:39:26.252Z,42.50
2017-11-26T14:41:53.003Z,43.10
2017-11-26T14:44:19.780Z,42.50
2017-11-26T14:46:46.571Z,43.40
2017-11-26T14:49:14.119Z,43.30
2017-11-26T14:51:40.885Z,43.30
2017-11-26T14:54:07.694Z,43.80
2017-11-26T14:56:34.503Z,43.10
2017-11-26T14:59:01.308Z,42.80
2017-11-26T15:01:28.908Z,43.10
2017-11-26T15:03:55.702Z,43.10
2017-11-26T15:06:22.497Z,42.70
2017-11-26T15:08:49.297Z,43.30
2017-11-26T15:11:16.143Z,42.60
2017-11-26T15:13:43.006Z,43.00
2017-11-26T15:16:10.546Z,42.60
2017-11-26T15:18:37.396Z,42.60
2017-11-26T15:21:04.210Z,43.40
2017-11-26T15:23:31.339Z,43.40
2017-11-26T15:25:58.200Z,42.30
2017-11-26T15:28:24.996Z,43.00
2017-11-26T15:33:26.379Z,42.60
2017-11-26T15:35:53.276Z,43.50
2017-11-26T15:38:20.157Z,44.10
2017-11-26T15:40:47.063Z,43.90
2017-11-26T15:43:13.892Z,43.80
2017-11-26T15:45:40.722Z,44.10
2017-11-26T15:48:08.306Z,43.10
2017-11-26T15:50:35.085Z,43.10
2017-11-26T15:53:01.823Z,44.10
2017-11-26T15:55:28.616Z,45.20
2017-11-26T15:57:56.123Z,44.60
2017-11-26T16:00:22.974Z,44.60
2017-11-26T16:02:49.799Z,44.40
2017-11-26T16:05:16.659Z,44.70
2017-11-26T16:07:44.209Z,45.00
2017-11-26T16:10:11.029Z,44.80
2017-11-26T16:12:38.565Z,45.60
2017-11-26T16:15:05.341Z,45.60
2017-11-26T16:17:32.880Z,44.80
2017-11-26T16:19:59.685Z,44.80
2017-11-26T16:22:26.469Z,44.80
2017-11-26T16:24:53.278Z,44.80
2017-11-26T16:27:20.063Z,45.50
2017-11-26T16:29:46.839Z,45.10
2017-11-26T16:32:14.418Z,44.60
2017-11-26T16:34:41.235Z,44.60
2017-11-26T16:37:08.789Z,45.00
2017-11-26T16:39:35.509Z,44.90
2017-11-26T16:42:02.371Z,44.00
2017-11-26T16:44:29.132Z,44.70
2017-11-26T16:46:55.878Z,43.60
2017-11-26T16:49:23.514Z,43.70
2017-11-26T16:51:50.295Z,43.70
2017-11-26T16:54:17.868Z,42.90
2017-11-26T16:56:45.519Z,42.70
2017-11-26T16:59:13.040Z,42.80
2017-11-26T17:01:39.816Z,42.70
2017-11-26T17:04:07.317Z,42.50
2017-11-26T17:06:34.995Z,42.40
2017-11-26T17:09:01.859Z,43.40
2017-11-26T17:11:28.723Z,43.20
2017-11-26T17:13:55.510Z,41.90
2017-11-26T17:16:22.321Z,41.60
2017-11-26T17:18:49.066Z,41.60
2017-11-26T17:21:15.866Z,41.00
2017-11-26T17:23:42.746Z,40.70
2017-11-26T17:26:09.552Z,40.60
2017-11-26T17:28:36.280Z,41.00
2017-11-26T17:31:03.145Z,40.90
2017-11-26T17:33:29.916Z,40.40
2017-11-26T17:35:56.699Z,41.10
2017-11-26T17:38:23.483Z,40.60
2017-11-26T17:40:50.782Z,40.40
2017-11-26T17:43:17.648Z,40.10
2017-11-26T17:45:44.483Z,40.80
2017-11-26T17:48:11.259Z,40.90
2017-11-26T17:50:38.787Z,42.10
2017-11-26T17:53:05.619Z,42.10
2017-11-26T17:55:32.363Z,41.30
2017-11-26T17:57:59.195Z,41.20
2017-11-26T18:00:25.958Z,40.80
2017-11-26T18:02:52.742Z,41.00
2017-11-26T18:05:20.228Z,41.40
2017-11-26T18:07:46.952Z,41.40
2017-11-26T18:10:14.524Z,40.60
2017-11-26T18:12:42.104Z,40.10
2017-11-26T18:15:08.838Z,40.10
2017-11-26T18:17:35.526Z,40.20
2017-11-26T18:20:02.252Z,40.20
2017-11-26T18:22:29.027Z,40.50
2017-11-26T18:24:55.757Z,40.50
2017-11-26T18:27:22.426Z,40.80
2017-11-26T18:29:49.161Z,40.70
2017-11-26T18:32:15.869Z,41.00
2017-11-26T18:34:42.620Z,41.10
2017-11-26T18:37:09.305Z,41.10
2017-11-26T18:39:36.739Z,41.30
2017-11-26T18:42:04.964Z,41.70
2017-11-26T18:44:31.721Z,41.30
2017-11-26T18:46:58.446Z,42.00
2017-11-26T18:49:25.933Z,42.60
2017-11-26T18:51:52.627Z,42.60
2017-11-26T18:54:20.245Z,42.10
2017-11-26T18:56:46.952Z,42.60
2017-11-26T18:59:14.389Z,43.20
2017-11-26T19:01:41.125Z,43.10
2017-11-26T19:04:07.848Z,42.50
2017-11-26T19:06:34.596Z,42.70
2017-11-26T19:09:01.334Z,44.00
2017-11-26T19:11:28.092Z,43.30
2017-11-26T19:13:54.823Z,43.70
2017-11-26T19:16:21.546Z,44.00
2017-11-26T19:18:48.285Z,44.70
2017-11-26T19:21:15.016Z,44.50
2017-11-26T19:23:42.492Z,45.20
2017-11-26T19:26:10.176Z,45.20
2017-11-26T19:28:36.951Z,46.10
2017-11-26T19:31:03.699Z,46.00
2017-11-26T19:33:30.419Z,46.10
2017-11-26T19:35:57.140Z,46.00
2017-11-26T19:38:23.921Z,46.30
2017-11-26T19:40:50.639Z,46.80
2017-11-26T19:43:17.411Z,47.10
2017-11-26T19:45:44.293Z,46.90
2017-11-26T19:48:11.856Z,47.70
2017-11-26T19:50:39.373Z,47.80
2017-11-26T19:53:06.095Z,47.80
2017-11-26T19:55:32.884Z,47.90
2017-11-26T19:57:59.623Z,48.00
2017-11-26T20:00:26.496Z,47.50
2017-11-26T20:02:53.938Z,47.30
2017-11-26T20:05:20.738Z,47.20
2017-11-26T20:07:47.502Z,46.90
2017-11-26T20:10:14.247Z,47.80
2017-11-26T20:12:41.061Z,47.80
2017-11-26T20:15:07.827Z,47.90
2017-11-26T20:17:34.587Z,47.90
2017-11-26T20:20:01.423Z,48.10
2017-11-26T20:22:28.212Z,49.10
2017-11-26T20:24:55.666Z,48.10
2017-11-26T20:27:22.393Z,48.10
2017-11-26T20:29:49.135Z,48.40
2017-11-26T20:32:16.568Z,48.30
2017-11-26T20:34:43.267Z,48.30
2017-11-26T20:37:09.997Z,48.30
2017-11-26T20:39:36.762Z,47.80
2017-11-26T20:42:04.225Z,48.10
2017-11-26T20:44:31.692Z,48.10
2017-11-26T20:46:59.134Z,48.50
2017-11-26T20:49:25.915Z,48.40
2017-11-26T20:51:52.635Z,48.70
2017-11-26T20:54:20.043Z,49.40
2017-11-26T20:56:46.710Z,49.40
2017-11-26T20:59:14.158Z,48.40
2017-11-26T21:01:40.858Z,48.40
2017-11-26T21:04:07.612Z,48.50
2017-11-26T21:06:34.329Z,49.70
2017-11-26T21:09:01.818Z,48.30
2017-11-26T21:11:28.496Z,48.30
2017-11-26T21:13:55.212Z,48.80
2017-11-26T21:16:21.895Z,49.60
2017-11-26T21:18:48.573Z,48.50
2017-11-26T21:21:15.316Z,49.30
2017-11-26T21:23:42.732Z,50.40
2017-11-26T21:26:09.503Z,50.30
2017-11-26T21:28:36.315Z,50.00
2017-11-26T21:31:03.084Z,49.70
2017-11-26T21:33:29.755Z,48.80
2017-11-26T21:35:57.331Z,49.60
2017-11-26T21:38:24.025Z,49.60
2017-11-26T21:40:50.689Z,50.20
2017-11-26T21:43:17.381Z,50.10
2017-11-26T21:45:44.066Z,49.80
2017-11-26T21:48:10.740Z,51.00
2017-11-26T21:50:38.155Z,50.00
2017-11-26T21:53:04.971Z,50.00
2017-11-26T21:55:31.658Z,50.30
2017-11-26T21:57:58.357Z,51.20
2017-11-26T22:00:25.101Z,50.20
2017-11-26T22:02:51.831Z,50.70
2017-11-26T22:05:18.499Z,51.20
2017-11-26T22:07:45.187Z,52.00
2017-11-26T22:10:12.635Z,51.80
2017-11-26T22:12:39.363Z,51.70
2017-11-26T22:15:06.138Z,51.10
2017-11-26T22:17:33.585Z,50.90
2017-11-26T22:20:00.277Z,50.90
2017-11-26T22:22:27.038Z,50.20
2017-11-26T22:24:53.761Z,50.30
2017-11-26T22:27:20.564Z,50.50
2017-11-26T22:29:47.335Z,50.80
2017-11-26T22:32:14.073Z,50.90
2017-11-26T22:34:41.515Z,52.90
2017-11-26T22:37:08.283Z,52.80
2017-11-26T22:39:35.721Z,51.10
2017-11-26T22:42:02.385Z,51.10
2017-11-26T22:44:29.832Z,52.90
2017-11-26T22:46:56.541Z,52.90
2017-11-26T22:49:23.234Z,54.70
2017-11-26T22:51:50.672Z,56.50
2017-11-26T22:54:17.332Z,56.50
2017-11-26T22:56:44.771Z,57.40
2017-11-26T22:59:11.558Z,57.40
2017-11-26T23:01:38.300Z,58.00
2017-11-26T23:04:05.699Z,59.20
2017-11-26T23:06:32.376Z,59.20
2017-11-26T23:08:59.816Z,59.90
2017-11-26T23:11:26.501Z,59.90
2017-11-26T23:13:53.949Z,61.20
2017-11-26T23:16:21.370Z,62.10
2017-11-26T23:18:48.985Z,62.10
2017-11-26T23:21:16.439Z,65.00
2017-11-26T23:23:43.856Z,67.30
2017-11-26T23:26:10.507Z,67.30
2017-11-26T23:28:37.355Z,65.80
2017-11-26T23:31:04.046Z,67.60
2017-11-26T23:33:30.718Z,66.80
2017-11-26T23:35:57.442Z,67.50
2017-11-26T23:38:24.129Z,66.70
2017-11-26T23:40:50.804Z,67.30
2017-11-26T23:43:18.266Z,69.00
2017-11-26T23:45:45.709Z,69.10
2017-11-26T23:48:13.717Z,69.60
2017-11-26T23:50:40.410Z,69.40
2017-11-26T23:53:07.080Z,69.70
2017-11-26T23:55:34.529Z,69.60
2017-11-26T23:58:01.207Z,69.60
